aviador You're here:

KIZG Decoded Metar

FRYEBURG in ME, USA
Report Time2018-01-22 19:54:00
UTC Time2018-01-22 20:06:17
Flight Rules mvfr MVFR
Wind100° at 05 kt
W.Decomp.*RWY 14: 4.6 kt HW 2 kt LCW
W.Rank100° ranks 29
Current wind is above 100° avg. (4.5)
Visibility9999 m
Phenomena:N/A
Clouds:Broken 013 Hf
Overcast 025 Hf
Expected CloudBase > 400 ft AGL from Temp-Dew spread
Ceiling1,300 ft
Temp-4°C (ISA -18)
Dew Point-5°C (93% RH)
AAT-8.4°C
QNH1027 hPa
Density Alt-2,208 ft
Elevation443 ft
Report Wrong Elevation
Raw Report
KIZG 221954Z AUTO 10005KT 10SM BKN013 OVC025 M04/M05 A3034 RMK AO2
SNE39 SLP282 P0000 T10391050=

Extra information for KIZG:More info

Metar Taf Metar & Taf Last 4 Metars F.Rules Stats Wind Profile Meteogram Temp Stats Airport Information Weather charts Add Link Nearby VenuesMetar ALERT Operation Metar Decoded Social comments

AIRNAV info for KIZG